sensor_id;sensor_type;location;lat;lon;timestamp;P1;durP1;ratioP1;P2;durP2;ratioP2
15071;SDS011;7635;56.696;13.002;2023-08-21T00:01:00;2.45;;;1.90;;
15071;SDS011;7635;56.696;13.002;2023-08-21T00:03:27;4.07;;;2.78;;
15071;SDS011;7635;56.696;13.002;2023-08-21T00:05:54;3.58;;;2.50;;
15071;SDS011;7635;56.696;13.002;2023-08-21T00:08:21;2.90;;;2.60;;
15071;SDS011;7635;56.696;13.002;2023-08-21T00:10:49;2.70;;;1.92;;
15071;SDS011;7635;56.696;13.002;2023-08-21T00:13:16;2.65;;;2.45;;
15071;SDS011;7635;56.696;13.002;2023-08-21T00:15:43;3.40;;;2.45;;
15071;SDS011;7635;56.696;13.002;2023-08-21T00:18:10;3.53;;;2.70;;
15071;SDS011;7635;56.696;13.002;2023-08-21T00:20:37;2.50;;;2.30;;
15071;SDS011;7635;56.696;13.002;2023-08-21T00:23:04;2.55;;;2.35;;
15071;SDS011;7635;56.696;13.002;2023-08-21T00:25:31;2.65;;;2.45;;
15071;SDS011;7635;56.696;13.002;2023-08-21T00:27:59;2.75;;;2.47;;
15071;SDS011;7635;56.696;13.002;2023-08-21T00:30:25;4.90;;;2.67;;
15071;SDS011;7635;56.696;13.002;2023-08-21T00:32:52;2.58;;;2.38;;
15071;SDS011;7635;56.696;13.002;2023-08-21T00:35:19;3.83;;;2.50;;
15071;SDS011;7635;56.696;13.002;2023-08-21T00:37:45;5.68;;;2.97;;
15071;SDS011;7635;56.696;13.002;2023-08-21T00:40:13;2.95;;;2.50;;
15071;SDS011;7635;56.696;13.002;2023-08-21T00:42:39;4.10;;;2.75;;
15071;SDS011;7635;56.696;13.002;2023-08-21T00:45:08;3.63;;;2.40;;
15071;SDS011;7635;56.696;13.002;2023-08-21T00:47:36;2.67;;;2.42;;
15071;SDS011;7635;56.696;13.002;2023-08-21T00:50:03;2.95;;;2.13;;
15071;SDS011;7635;56.696;13.002;2023-08-21T00:52:32;3.20;;;2.22;;
15071;SDS011;7635;56.696;13.002;2023-08-21T00:55:00;2.10;;;1.90;;
15071;SDS011;7635;56.696;13.002;2023-08-21T00:57:28;3.60;;;2.15;;
15071;SDS011;7635;56.696;13.002;2023-08-21T00:59:55;7.72;;;2.85;;
15071;SDS011;7635;56.696;13.002;2023-08-21T01:02:23;3.08;;;2.45;;
15071;SDS011;7635;56.696;13.002;2023-08-21T01:04:50;2.50;;;2.30;;
15071;SDS011;7635;56.696;13.002;2023-08-21T01:07:16;3.45;;;2.40;;
15071;SDS011;7635;56.696;13.002;2023-08-21T01:09:45;2.95;;;2.65;;
15071;SDS011;7635;56.696;13.002;2023-08-21T01:12:17;3.33;;;2.53;;
15071;SDS011;7635;56.696;13.002;2023-08-21T01:14:51;2.60;;;2.40;;
15071;SDS011;7635;56.696;13.002;2023-08-21T01:17:25;2.78;;;2.30;;
15071;SDS011;7635;56.696;13.002;2023-08-21T01:19:54;2.58;;;2.38;;
15071;SDS011;7635;56.696;13.002;2023-08-21T01:22:24;6.75;;;2.40;;
15071;SDS011;7635;56.696;13.002;2023-08-21T01:24:53;3.65;;;2.38;;
15071;SDS011;7635;56.696;13.002;2023-08-21T01:27:20;2.63;;;2.40;;
15071;SDS011;7635;56.696;13.002;2023-08-21T01:29:47;1.90;;;1.80;;
15071;SDS011;7635;56.696;13.002;2023-08-21T01:32:14;2.67;;;2.05;;
15071;SDS011;7635;56.696;13.002;2023-08-21T01:34:47;2.65;;;2.10;;
15071;SDS011;7635;56.696;13.002;2023-08-21T01:37:15;2.20;;;2.00;;
15071;SDS011;7635;56.696;13.002;2023-08-21T01:39:43;2.20;;;2.00;;
15071;SDS011;7635;56.696;13.002;2023-08-21T01:42:11;2.25;;;2.08;;
15071;SDS011;7635;56.696;13.002;2023-08-21T01:44:37;6.30;;;2.58;;
15071;SDS011;7635;56.696;13.002;2023-08-21T01:47:04;3.88;;;2.13;;
15071;SDS011;7635;56.696;13.002;2023-08-21T01:49:32;4.10;;;2.55;;
15071;SDS011;7635;56.696;13.002;2023-08-21T01:51:58;5.68;;;2.50;;
15071;SDS011;7635;56.696;13.002;2023-08-21T01:54:25;2.78;;;2.53;;
15071;SDS011;7635;56.696;13.002;2023-08-21T01:56:51;2.90;;;2.50;;
15071;SDS011;7635;56.696;13.002;2023-08-21T01:59:19;3.60;;;2.83;;
15071;SDS011;7635;56.696;13.002;2023-08-21T02:01:47;2.63;;;2.15;;
15071;SDS011;7635;56.696;13.002;2023-08-21T02:04:14;2.13;;;1.92;;
15071;SDS011;7635;56.696;13.002;2023-08-21T02:06:40;2.67;;;2.30;;
15071;SDS011;7635;56.696;13.002;2023-08-21T02:09:09;3.03;;;2.20;;
15071;SDS011;7635;56.696;13.002;2023-08-21T02:11:35;2.47;;;2.25;;
15071;SDS011;7635;56.696;13.002;2023-08-21T02:14:02;2.25;;;2.08;;
15071;SDS011;7635;56.696;13.002;2023-08-21T02:16:30;2.25;;;2.08;;
15071;SDS011;7635;56.696;13.002;2023-08-21T02:18:58;3.15;;;2.10;;
15071;SDS011;7635;56.696;13.002;2023-08-21T02:21:25;2.72;;;2.10;;
15071;SDS011;7635;56.696;13.002;2023-08-21T02:23:51;2.30;;;2.10;;
15071;SDS011;7635;56.696;13.002;2023-08-21T02:26:18;3.40;;;1.90;;
15071;SDS011;7635;56.696;13.002;2023-08-21T02:28:45;3.00;;;2.20;;
15071;SDS011;7635;56.696;13.002;2023-08-21T02:31:12;2.90;;;2.20;;
15071;SDS011;7635;56.696;13.002;2023-08-21T02:33:40;2.05;;;1.85;;
15071;SDS011;7635;56.696;13.002;2023-08-21T02:36:06;3.08;;;2.42;;
15071;SDS011;7635;56.696;13.002;2023-08-21T02:38:33;3.35;;;2.30;;
15071;SDS011;7635;56.696;13.002;2023-08-21T02:41:00;2.13;;;1.85;;
15071;SDS011;7635;56.696;13.002;2023-08-21T02:43:27;2.05;;;1.85;;
15071;SDS011;7635;56.696;13.002;2023-08-21T02:45:53;1.88;;;1.77;;
15071;SDS011;7635;56.696;13.002;2023-08-21T02:48:20;5.57;;;1.70;;
15071;SDS011;7635;56.696;13.002;2023-08-21T02:50:48;2.22;;;1.80;;
15071;SDS011;7635;56.696;13.002;2023-08-21T02:53:15;2.47;;;2.10;;
15071;SDS011;7635;56.696;13.002;2023-08-21T02:55:42;2.25;;;2.05;;
15071;SDS011;7635;56.696;13.002;2023-08-21T02:58:08;2.03;;;1.83;;
15071;SDS011;7635;56.696;13.002;2023-08-21T03:00:35;3.00;;;2.15;;
15071;SDS011;7635;56.696;13.002;2023-08-21T03:03:02;4.03;;;2.03;;
15071;SDS011;7635;56.696;13.002;2023-08-21T03:05:30;2.50;;;2.03;;
15071;SDS011;7635;56.696;13.002;2023-08-21T03:07:58;1.80;;;1.70;;
15071;SDS011;7635;56.696;13.002;2023-08-21T03:10:24;2.30;;;2.00;;
15071;SDS011;7635;56.696;13.002;2023-08-21T03:12:52;2.33;;;2.03;;
15071;SDS011;7635;56.696;13.002;2023-08-21T03:15:19;4.63;;;2.38;;
15071;SDS011;7635;56.696;13.002;2023-08-21T03:17:45;1.92;;;1.77;;
15071;SDS011;7635;56.696;13.002;2023-08-21T03:20:12;4.50;;;1.80;;
15071;SDS011;7635;56.696;13.002;2023-08-21T03:22:40;2.72;;;1.90;;
15071;SDS011;7635;56.696;13.002;2023-08-21T03:25:08;2.00;;;1.80;;
15071;SDS011;7635;56.696;13.002;2023-08-21T03:27:36;2.17;;;1.88;;
15071;SDS011;7635;56.696;13.002;2023-08-21T03:30:05;2.20;;;2.00;;
15071;SDS011;7635;56.696;13.002;2023-08-21T03:32:32;4.95;;;1.83;;
15071;SDS011;7635;56.696;13.002;2023-08-21T03:34:59;2.33;;;1.83;;
15071;SDS011;7635;56.696;13.002;2023-08-21T03:37:26;1.73;;;1.63;;
15071;SDS011;7635;56.696;13.002;2023-08-21T03:39:53;2.15;;;1.95;;
15071;SDS011;7635;56.696;13.002;2023-08-21T03:42:21;2.00;;;1.90;;
15071;SDS011;7635;56.696;13.002;2023-08-21T03:44:47;2.65;;;2.10;;
15071;SDS011;7635;56.696;13.002;2023-08-21T03:47:15;4.75;;;1.88;;
15071;SDS011;7635;56.696;13.002;2023-08-21T03:49:42;2.00;;;1.80;;
15071;SDS011;7635;56.696;13.002;2023-08-21T03:52:08;7.97;;;2.22;;
15071;SDS011;7635;56.696;13.002;2023-08-21T03:54:35;2.50;;;2.20;;
15071;SDS011;7635;56.696;13.002;2023-08-21T03:57:02;2.53;;;1.98;;
15071;SDS011;7635;56.696;13.002;2023-08-21T03:59:30;3.20;;;1.90;;
15071;SDS011;7635;56.696;13.002;2023-08-21T04:01:57;3.35;;;2.13;;
15071;SDS011;7635;56.696;13.002;2023-08-21T04:04:23;3.85;;;1.90;;
15071;SDS011;7635;56.696;13.002;2023-08-21T04:06:50;2.80;;;2.22;;
15071;SDS011;7635;56.696;13.002;2023-08-21T04:09:17;1.77;;;1.63;;
15071;SDS011;7635;56.696;13.002;2023-08-21T04:11:43;2.22;;;2.03;;
15071;SDS011;7635;56.696;13.002;2023-08-21T04:14:10;3.05;;;1.90;;
15071;SDS011;7635;56.696;13.002;2023-08-21T04:16:38;2.10;;;1.90;;
15071;SDS011;7635;56.696;13.002;2023-08-21T04:19:05;4.30;;;2.30;;
15071;SDS011;7635;56.696;13.002;2023-08-21T04:21:32;2.25;;;2.05;;
15071;SDS011;7635;56.696;13.002;2023-08-21T04:23:58;4.07;;;2.50;;
15071;SDS011;7635;56.696;13.002;2023-08-21T04:26:25;4.72;;;2.90;;
15071;SDS011;7635;56.696;13.002;2023-08-21T04:28:52;4.32;;;2.25;;
15071;SDS011;7635;56.696;13.002;2023-08-21T04:31:19;3.35;;;1.92;;
15071;SDS011;7635;56.696;13.002;2023-08-21T04:33:47;4.10;;;2.42;;
15071;SDS011;7635;56.696;13.002;2023-08-21T04:36:14;2.40;;;1.88;;
15071;SDS011;7635;56.696;13.002;2023-08-21T04:38:41;2.55;;;2.17;;
15071;SDS011;7635;56.696;13.002;2023-08-21T04:41:08;2.67;;;2.13;;
15071;SDS011;7635;56.696;13.002;2023-08-21T04:43:35;2.20;;;2.00;;
15071;SDS011;7635;56.696;13.002;2023-08-21T04:46:03;3.78;;;2.25;;
15071;SDS011;7635;56.696;13.002;2023-08-21T04:48:31;4.40;;;2.20;;
15071;SDS011;7635;56.696;13.002;2023-08-21T04:50:59;3.63;;;2.05;;
15071;SDS011;7635;56.696;13.002;2023-08-21T04:53:25;2.60;;;2.13;;
15071;SDS011;7635;56.696;13.002;2023-08-21T04:55:52;2.72;;;2.08;;
15071;SDS011;7635;56.696;13.002;2023-08-21T04:58:19;1.92;;;1.83;;
15071;SDS011;7635;56.696;13.002;2023-08-21T05:00:45;2.83;;;2.40;;
15071;SDS011;7635;56.696;13.002;2023-08-21T05:03:12;3.15;;;2.05;;
15071;SDS011;7635;56.696;13.002;2023-08-21T05:05:39;2.72;;;2.38;;
15071;SDS011;7635;56.696;13.002;2023-08-21T05:08:07;3.50;;;2.20;;
15071;SDS011;7635;56.696;13.002;2023-08-21T05:10:33;3.95;;;2.10;;
15071;SDS011;7635;56.696;13.002;2023-08-21T05:13:00;2.13;;;1.85;;
15071;SDS011;7635;56.696;13.002;2023-08-21T05:15:27;2.45;;;1.98;;
15071;SDS011;7635;56.696;13.002;2023-08-21T05:17:53;3.22;;;2.17;;
15071;SDS011;7635;56.696;13.002;2023-08-21T05:20:20;1.88;;;1.70;;
15071;SDS011;7635;56.696;13.002;2023-08-21T05:22:47;2.08;;;1.88;;
15071;SDS011;7635;56.696;13.002;2023-08-21T05:25:15;2.70;;;1.83;;
15071;SDS011;7635;56.696;13.002;2023-08-21T05:27:42;2.13;;;1.92;;
15071;SDS011;7635;56.696;13.002;2023-08-21T05:30:09;2.38;;;1.98;;
15071;SDS011;7635;56.696;13.002;2023-08-21T05:32:37;2.75;;;1.88;;
15071;SDS011;7635;56.696;13.002;2023-08-21T05:35:04;2.00;;;1.88;;
15071;SDS011;7635;56.696;13.002;2023-08-21T05:37:33;2.22;;;1.88;;
15071;SDS011;7635;56.696;13.002;2023-08-21T05:39:59;3.85;;;2.17;;
15071;SDS011;7635;56.696;13.002;2023-08-21T05:42:29;4.40;;;1.98;;
15071;SDS011;7635;56.696;13.002;2023-08-21T05:44:56;2.22;;;1.95;;
15071;SDS011;7635;56.696;13.002;2023-08-21T05:47:22;2.15;;;1.60;;
15071;SDS011;7635;56.696;13.002;2023-08-21T05:49:49;3.13;;;1.85;;
15071;SDS011;7635;56.696;13.002;2023-08-21T05:52:17;4.63;;;1.65;;
15071;SDS011;7635;56.696;13.002;2023-08-21T05:54:44;2.08;;;1.88;;
15071;SDS011;7635;56.696;13.002;2023-08-21T05:57:11;1.83;;;1.73;;
15071;SDS011;7635;56.696;13.002;2023-08-21T05:59:42;1.73;;;1.60;;
15071;SDS011;7635;56.696;13.002;2023-08-21T06:02:10;2.10;;;1.90;;
15071;SDS011;7635;56.696;13.002;2023-08-21T06:04:37;2.75;;;2.28;;
15071;SDS011;7635;56.696;13.002;2023-08-21T06:07:05;4.15;;;1.90;;
15071;SDS011;7635;56.696;13.002;2023-08-21T06:09:32;1.50;;;1.40;;
15071;SDS011;7635;56.696;13.002;2023-08-21T06:11:59;2.75;;;1.90;;
15071;SDS011;7635;56.696;13.002;2023-08-21T06:14:26;4.05;;;1.83;;
15071;SDS011;7635;56.696;13.002;2023-08-21T06:16:55;2.10;;;1.90;;
15071;SDS011;7635;56.696;13.002;2023-08-21T06:19:22;3.85;;;1.60;;
15071;SDS011;7635;56.696;13.002;2023-08-21T06:21:49;3.22;;;1.70;;
15071;SDS011;7635;56.696;13.002;2023-08-21T06:24:16;2.25;;;1.67;;
15071;SDS011;7635;56.696;13.002;2023-08-21T06:26:43;5.55;;;2.05;;
15071;SDS011;7635;56.696;13.002;2023-08-21T06:29:09;2.42;;;1.63;;
15071;SDS011;7635;56.696;13.002;2023-08-21T06:31:36;2.75;;;1.85;;
15071;SDS011;7635;56.696;13.002;2023-08-21T06:34:04;2.75;;;1.50;;
15071;SDS011;7635;56.696;13.002;2023-08-21T06:36:31;1.67;;;1.58;;
15071;SDS011;7635;56.696;13.002;2023-08-21T06:38:58;3.65;;;1.60;;
15071;SDS011;7635;56.696;13.002;2023-08-21T06:41:24;2.33;;;1.35;;
15071;SDS011;7635;56.696;13.002;2023-08-21T06:43:51;2.75;;;1.60;;
15071;SDS011;7635;56.696;13.002;2023-08-21T06:46:18;2.33;;;1.67;;
15071;SDS011;7635;56.696;13.002;2023-08-21T06:48:45;2.67;;;1.52;;
15071;SDS011;7635;56.696;13.002;2023-08-21T06:51:13;2.83;;;1.67;;
15071;SDS011;7635;56.696;13.002;2023-08-21T06:53:40;1.70;;;1.60;;
15071;SDS011;7635;56.696;13.002;2023-08-21T06:56:07;4.05;;;1.60;;
15071;SDS011;7635;56.696;13.002;2023-08-21T06:58:34;1.70;;;1.60;;
15071;SDS011;7635;56.696;13.002;2023-08-21T07:01:00;3.22;;;1.60;;
15071;SDS011;7635;56.696;13.002;2023-08-21T07:03:27;4.20;;;1.85;;
15071;SDS011;7635;56.696;13.002;2023-08-21T07:05:54;3.58;;;1.77;;
15071;SDS011;7635;56.696;13.002;2023-08-21T07:08:23;4.40;;;1.90;;
15071;SDS011;7635;56.696;13.002;2023-08-21T07:10:50;2.67;;;1.77;;
15071;SDS011;7635;56.696;13.002;2023-08-21T07:13:17;2.95;;;1.45;;
15071;SDS011;7635;56.696;13.002;2023-08-21T07:15:44;6.47;;;1.70;;
15071;SDS011;7635;56.696;13.002;2023-08-21T07:18:13;3.13;;;1.48;;
15071;SDS011;7635;56.696;13.002;2023-08-21T07:20:40;3.80;;;1.70;;
15071;SDS011;7635;56.696;13.002;2023-08-21T07:23:07;2.05;;;1.67;;
15071;SDS011;7635;56.696;13.002;2023-08-21T07:25:35;6.28;;;2.00;;
15071;SDS011;7635;56.696;13.002;2023-08-21T07:28:02;3.53;;;2.28;;
15071;SDS011;7635;56.696;13.002;2023-08-21T07:30:29;2.20;;;1.67;;
15071;SDS011;7635;56.696;13.002;2023-08-21T07:32:55;3.70;;;2.03;;
15071;SDS011;7635;56.696;13.002;2023-08-21T07:35:22;2.00;;;1.70;;
15071;SDS011;7635;56.696;13.002;2023-08-21T07:37:49;5.95;;;1.92;;
15071;SDS011;7635;56.696;13.002;2023-08-21T07:40:16;2.33;;;1.70;;
15071;SDS011;7635;56.696;13.002;2023-08-21T07:42:44;2.22;;;1.63;;
15071;SDS011;7635;56.696;13.002;2023-08-21T07:45:10;1.73;;;1.58;;
15071;SDS011;7635;56.696;13.002;2023-08-21T07:47:37;8.23;;;1.77;;
15071;SDS011;7635;56.696;13.002;2023-08-21T07:50:04;6.53;;;1.63;;
15071;SDS011;7635;56.696;13.002;2023-08-21T07:52:32;1.73;;;1.60;;
15071;SDS011;7635;56.696;13.002;2023-08-21T07:54:58;2.80;;;1.65;;
15071;SDS011;7635;56.696;13.002;2023-08-21T07:57:26;7.32;;;2.00;;
15071;SDS011;7635;56.696;13.002;2023-08-21T07:59:54;2.28;;;1.40;;
15071;SDS011;7635;56.696;13.002;2023-08-21T08:02:21;5.47;;;1.85;;
15071;SDS011;7635;56.696;13.002;2023-08-21T08:04:47;2.78;;;1.58;;
15071;SDS011;7635;56.696;13.002;2023-08-21T08:07:14;3.50;;;1.70;;
15071;SDS011;7635;56.696;13.002;2023-08-21T08:09:41;1.98;;;1.50;;
15071;SDS011;7635;56.696;13.002;2023-08-21T08:12:08;6.00;;;1.98;;
15071;SDS011;7635;56.696;13.002;2023-08-21T08:14:35;2.95;;;1.60;;
15071;SDS011;7635;56.696;13.002;2023-08-21T08:17:03;2.47;;;1.98;;
15071;SDS011;7635;56.696;13.002;2023-08-21T08:19:29;1.77;;;1.67;;
15071;SDS011;7635;56.696;13.002;2023-08-21T08:21:56;3.13;;;2.03;;
15071;SDS011;7635;56.696;13.002;2023-08-21T08:24:23;2.35;;;1.73;;
15071;SDS011;7635;56.696;13.002;2023-08-21T08:26:49;4.88;;;1.80;;
15071;SDS011;7635;56.696;13.002;2023-08-21T08:29:16;1.92;;;1.60;;
15071;SDS011;7635;56.696;13.002;2023-08-21T08:31:43;2.40;;;1.55;;
15071;SDS011;7635;56.696;13.002;2023-08-21T08:34:11;2.78;;;1.60;;
15071;SDS011;7635;56.696;13.002;2023-08-21T08:36:37;2.70;;;1.80;;
15071;SDS011;7635;56.696;13.002;2023-08-21T08:39:06;2.33;;;1.70;;
15071;SDS011;7635;56.696;13.002;2023-08-21T08:41:48;4.18;;;2.22;;
15071;SDS011;7635;56.696;13.002;2023-08-21T08:44:17;2.33;;;1.80;;
15071;SDS011;7635;56.696;13.002;2023-08-21T08:46:45;2.22;;;1.55;;
15071;SDS011;7635;56.696;13.002;2023-08-21T08:49:13;2.97;;;1.80;;
15071;SDS011;7635;56.696;13.002;2023-08-21T08:51:40;2.30;;;1.60;;
15071;SDS011;7635;56.696;13.002;2023-08-21T08:54:09;4.85;;;1.60;;
15071;SDS011;7635;56.696;13.002;2023-08-21T08:56:38;1.75;;;1.65;;
15071;SDS011;7635;56.696;13.002;2023-08-21T08:59:05;1.85;;;1.55;;
15071;SDS011;7635;56.696;13.002;2023-08-21T09:01:34;2.80;;;1.70;;
15071;SDS011;7635;56.696;13.002;2023-08-21T09:04:00;2.05;;;1.85;;
15071;SDS011;7635;56.696;13.002;2023-08-21T09:06:29;1.60;;;1.50;;
15071;SDS011;7635;56.696;13.002;2023-08-21T09:08:56;4.18;;;1.60;;
15071;SDS011;7635;56.696;13.002;2023-08-21T09:11:23;6.45;;;1.67;;
15071;SDS011;7635;56.696;13.002;2023-08-21T09:13:51;2.65;;;1.50;;
15071;SDS011;7635;56.696;13.002;2023-08-21T09:16:19;5.10;;;2.13;;
15071;SDS011;7635;56.696;13.002;2023-08-21T09:18:46;2.15;;;1.52;;
15071;SDS011;7635;56.696;13.002;2023-08-21T09:21:15;3.58;;;1.63;;
15071;SDS011;7635;56.696;13.002;2023-08-21T09:23:44;2.08;;;1.50;;
15071;SDS011;7635;56.696;13.002;2023-08-21T09:26:17;4.05;;;1.67;;
15071;SDS011;7635;56.696;13.002;2023-08-21T09:28:45;4.10;;;1.77;;
15071;SDS011;7635;56.696;13.002;2023-08-21T09:31:12;3.45;;;1.80;;
15071;SDS011;7635;56.696;13.002;2023-08-21T09:33:39;3.40;;;1.70;;
15071;SDS011;7635;56.696;13.002;2023-08-21T09:36:06;1.95;;;1.80;;
15071;SDS011;7635;56.696;13.002;2023-08-21T09:38:37;3.95;;;1.60;;
15071;SDS011;7635;56.696;13.002;2023-08-21T09:41:06;2.45;;;1.52;;
15071;SDS011;7635;56.696;13.002;2023-08-21T09:43:37;4.45;;;2.33;;
15071;SDS011;7635;56.696;13.002;2023-08-21T09:46:07;3.63;;;1.80;;
15071;SDS011;7635;56.696;13.002;2023-08-21T09:48:34;2.85;;;1.55;;
15071;SDS011;7635;56.696;13.002;2023-08-21T09:51:03;3.92;;;1.70;;
15071;SDS011;7635;56.696;13.002;2023-08-21T09:53:30;2.13;;;1.60;;
15071;SDS011;7635;56.696;13.002;2023-08-21T09:55:57;3.33;;;1.55;;
15071;SDS011;7635;56.696;13.002;2023-08-21T09:58:29;1.98;;;1.70;;
15071;SDS011;7635;56.696;13.002;2023-08-21T10:00:56;3.80;;;1.50;;
15071;SDS011;7635;56.696;13.002;2023-08-21T10:03:24;3.20;;;1.70;;
15071;SDS011;7635;56.696;13.002;2023-08-21T10:05:52;1.63;;;1.52;;
15071;SDS011;7635;56.696;13.002;2023-08-21T10:08:23;2.63;;;1.67;;
15071;SDS011;7635;56.696;13.002;2023-08-21T10:10:51;1.70;;;1.38;;
15071;SDS011;7635;56.696;13.002;2023-08-21T10:13:18;3.20;;;1.50;;
15071;SDS011;7635;56.696;13.002;2023-08-21T10:15:46;3.28;;;1.17;;
15071;SDS011;7635;56.696;13.002;2023-08-21T10:18:17;1.48;;;1.38;;
15071;SDS011;7635;56.696;13.002;2023-08-21T10:20:44;3.05;;;1.95;;
15071;SDS011;7635;56.696;13.002;2023-08-21T10:23:23;1.92;;;1.23;;
15071;SDS011;7635;56.696;13.002;2023-08-21T10:25:54;3.25;;;1.75;;
15071;SDS011;7635;56.696;13.002;2023-08-21T10:28:21;2.95;;;1.52;;
15071;SDS011;7635;56.696;13.002;2023-08-21T10:30:50;4.72;;;1.80;;
15071;SDS011;7635;56.696;13.002;2023-08-21T10:33:17;6.47;;;1.80;;
15071;SDS011;7635;56.696;13.002;2023-08-21T10:36:13;2.10;;;1.55;;
15071;SDS011;7635;56.696;13.002;2023-08-21T10:41:29;2.63;;;1.48;;
15071;SDS011;7635;56.696;13.002;2023-08-21T10:43:56;1.90;;;1.40;;
15071;SDS011;7635;56.696;13.002;2023-08-21T10:46:24;2.10;;;1.88;;
15071;SDS011;7635;56.696;13.002;2023-08-21T10:48:51;4.57;;;1.58;;
15071;SDS011;7635;56.696;13.002;2023-08-21T10:51:17;1.83;;;1.50;;
15071;SDS011;7635;56.696;13.002;2023-08-21T10:53:45;4.38;;;1.40;;
15071;SDS011;7635;56.696;13.002;2023-08-21T10:56:11;2.42;;;1.83;;
15071;SDS011;7635;56.696;13.002;2023-08-21T10:58:38;2.58;;;1.60;;
15071;SDS011;7635;56.696;13.002;2023-08-21T11:01:07;3.83;;;1.45;;
15071;SDS011;7635;56.696;13.002;2023-08-21T11:03:35;1.40;;;1.30;;
15071;SDS011;7635;56.696;13.002;2023-08-21T11:06:05;1.38;;;1.23;;
15071;SDS011;7635;56.696;13.002;2023-08-21T11:08:32;1.60;;;1.50;;
15071;SDS011;7635;56.696;13.002;2023-08-21T11:10:59;1.60;;;1.50;;
15071;SDS011;7635;56.696;13.002;2023-08-21T11:13:26;1.60;;;1.50;;
15071;SDS011;7635;56.696;13.002;2023-08-21T11:16:00;2.60;;;1.50;;
15071;SDS011;7635;56.696;13.002;2023-08-21T11:18:31;3.38;;;1.45;;
15071;SDS011;7635;56.696;13.002;2023-08-21T11:21:07;4.10;;;1.60;;
15071;SDS011;7635;56.696;13.002;2023-08-21T11:23:35;3.10;;;1.83;;
15071;SDS011;7635;56.696;13.002;2023-08-21T11:26:03;1.15;;;1.13;;
15071;SDS011;7635;56.696;13.002;2023-08-21T11:28:30;2.03;;;1.40;;
15071;SDS011;7635;56.696;13.002;2023-08-21T11:30:57;4.00;;;1.80;;
15071;SDS011;7635;56.696;13.002;2023-08-21T11:33:25;1.80;;;1.33;;
15071;SDS011;7635;56.696;13.002;2023-08-21T11:35:53;2.28;;;1.48;;
15071;SDS011;7635;56.696;13.002;2023-08-21T11:38:24;1.63;;;1.48;;
15071;SDS011;7635;56.696;13.002;2023-08-21T11:40:52;3.50;;;1.77;;
15071;SDS011;7635;56.696;13.002;2023-08-21T11:43:20;1.30;;;1.20;;
15071;SDS011;7635;56.696;13.002;2023-08-21T11:45:47;1.50;;;1.40;;
15071;SDS011;7635;56.696;13.002;2023-08-21T11:48:14;5.97;;;1.50;;
15071;SDS011;7635;56.696;13.002;2023-08-21T11:50:40;3.80;;;1.63;;
15071;SDS011;7635;56.696;13.002;2023-08-21T11:53:07;3.30;;;1.60;;
15071;SDS011;7635;56.696;13.002;2023-08-21T11:55:37;9.75;;;1.85;;
15071;SDS011;7635;56.696;13.002;2023-08-21T11:58:05;4.40;;;1.60;;
15071;SDS011;7635;56.696;13.002;2023-08-21T12:00:32;2.47;;;1.60;;
15071;SDS011;7635;56.696;13.002;2023-08-21T12:02:59;1.60;;;1.50;;
15071;SDS011;7635;56.696;13.002;2023-08-21T12:05:29;3.63;;;1.60;;
15071;SDS011;7635;56.696;13.002;2023-08-21T12:07:55;2.30;;;1.67;;
15071;SDS011;7635;56.696;13.002;2023-08-21T12:10:23;1.63;;;1.52;;
15071;SDS011;7635;56.696;13.002;2023-08-21T12:12:51;1.45;;;1.35;;
15071;SDS011;7635;56.696;13.002;2023-08-21T12:15:18;1.45;;;1.35;;
15071;SDS011;7635;56.696;13.002;2023-08-21T12:17:45;2.13;;;1.65;;
15071;SDS011;7635;56.696;13.002;2023-08-21T12:20:12;3.55;;;1.38;;
15071;SDS011;7635;56.696;13.002;2023-08-21T12:22:39;1.50;;;1.40;;
15071;SDS011;7635;56.696;13.002;2023-08-21T12:25:06;2.28;;;1.58;;
15071;SDS011;7635;56.696;13.002;2023-08-21T12:27:33;3.50;;;1.73;;
15071;SDS011;7635;56.696;13.002;2023-08-21T12:30:01;2.20;;;1.90;;
15071;SDS011;7635;56.696;13.002;2023-08-21T12:32:28;3.47;;;1.55;;
15071;SDS011;7635;56.696;13.002;2023-08-21T12:34:55;5.30;;;1.55;;
15071;SDS011;7635;56.696;13.002;2023-08-21T12:37:22;4.05;;;1.40;;
15071;SDS011;7635;56.696;13.002;2023-08-21T12:39:48;1.77;;;1.60;;
15071;SDS011;7635;56.696;13.002;2023-08-21T12:42:15;2.33;;;1.70;;
15071;SDS011;7635;56.696;13.002;2023-08-21T12:44:42;3.05;;;1.83;;
15071;SDS011;7635;56.696;13.002;2023-08-21T12:47:10;1.40;;;1.30;;
15071;SDS011;7635;56.696;13.002;2023-08-21T12:49:37;1.77;;;1.63;;
15071;SDS011;7635;56.696;13.002;2023-08-21T12:52:04;1.80;;;1.48;;
15071;SDS011;7635;56.696;13.002;2023-08-21T12:54:32;4.68;;;1.70;;
15071;SDS011;7635;56.696;13.002;2023-08-21T12:56:58;2.60;;;1.50;;
15071;SDS011;7635;56.696;13.002;2023-08-21T12:59:25;4.95;;;1.80;;
15071;SDS011;7635;56.696;13.002;2023-08-21T13:01:52;5.70;;;1.70;;
15071;SDS011;7635;56.696;13.002;2023-08-21T13:04:20;1.77;;;1.45;;
15071;SDS011;7635;56.696;13.002;2023-08-21T13:06:46;3.65;;;1.67;;
15071;SDS011;7635;56.696;13.002;2023-08-21T13:09:13;5.25;;;2.17;;
15071;SDS011;7635;56.696;13.002;2023-08-21T13:11:40;1.30;;;1.27;;
15071;SDS011;7635;56.696;13.002;2023-08-21T13:14:06;5.15;;;1.88;;
15071;SDS011;7635;56.696;13.002;2023-08-21T13:16:33;2.63;;;1.63;;
15071;SDS011;7635;56.696;13.002;2023-08-21T13:19:00;3.15;;;1.70;;
15071;SDS011;7635;56.696;13.002;2023-08-21T13:21:28;2.10;;;1.73;;
15071;SDS011;7635;56.696;13.002;2023-08-21T13:23:55;1.52;;;1.42;;
15071;SDS011;7635;56.696;13.002;2023-08-21T13:26:21;1.85;;;1.67;;
15071;SDS011;7635;56.696;13.002;2023-08-21T13:28:50;2.30;;;1.80;;
15071;SDS011;7635;56.696;13.002;2023-08-21T13:31:17;2.78;;;1.90;;
15071;SDS011;7635;56.696;13.002;2023-08-21T13:33:44;5.43;;;1.63;;
15071;SDS011;7635;56.696;13.002;2023-08-21T13:36:11;3.33;;;2.20;;
15071;SDS011;7635;56.696;13.002;2023-08-21T13:38:39;1.70;;;1.60;;
15071;SDS011;7635;56.696;13.002;2023-08-21T13:41:06;1.63;;;1.52;;
15071;SDS011;7635;56.696;13.002;2023-08-21T13:43:33;2.65;;;1.58;;
15071;SDS011;7635;56.696;13.002;2023-08-21T13:46:00;2.60;;;1.77;;
15071;SDS011;7635;56.696;13.002;2023-08-21T13:48:28;1.83;;;1.70;;
15071;SDS011;7635;56.696;13.002;2023-08-21T13:50:55;3.53;;;1.80;;
15071;SDS011;7635;56.696;13.002;2023-08-21T13:53:22;4.75;;;1.80;;
15071;SDS011;7635;56.696;13.002;2023-08-21T13:55:50;1.77;;;1.67;;
15071;SDS011;7635;56.696;13.002;2023-08-21T13:58:17;3.15;;;1.52;;
15071;SDS011;7635;56.696;13.002;2023-08-21T14:00:44;2.08;;;1.48;;
15071;SDS011;7635;56.696;13.002;2023-08-21T14:03:10;3.38;;;1.60;;
15071;SDS011;7635;56.696;13.002;2023-08-21T14:05:37;1.80;;;1.70;;
15071;SDS011;7635;56.696;13.002;2023-08-21T14:08:04;2.60;;;1.80;;
15071;SDS011;7635;56.696;13.002;2023-08-21T14:10:31;3.97;;;1.85;;
15071;SDS011;7635;56.696;13.002;2023-08-21T14:12:59;1.88;;;1.50;;
15071;SDS011;7635;56.696;13.002;2023-08-21T14:15:28;3.97;;;2.17;;
15071;SDS011;7635;56.696;13.002;2023-08-21T14:17:55;2.53;;;1.67;;
15071;SDS011;7635;56.696;13.002;2023-08-21T14:20:21;1.83;;;1.60;;
15071;SDS011;7635;56.696;13.002;2023-08-21T14:22:48;3.40;;;1.60;;
15071;SDS011;7635;56.696;13.002;2023-08-21T14:25:16;1.60;;;1.50;;
15071;SDS011;7635;56.696;13.002;2023-08-21T14:27:43;1.55;;;1.45;;
15071;SDS011;7635;56.696;13.002;2023-08-21T14:30:12;3.10;;;1.77;;
15071;SDS011;7635;56.696;13.002;2023-08-21T14:32:39;3.88;;;1.98;;
15071;SDS011;7635;56.696;13.002;2023-08-21T14:35:07;2.60;;;1.58;;
15071;SDS011;7635;56.696;13.002;2023-08-21T14:37:34;2.72;;;1.80;;
15071;SDS011;7635;56.696;13.002;2023-08-21T14:40:01;3.53;;;1.80;;
15071;SDS011;7635;56.696;13.002;2023-08-21T14:42:32;2.80;;;2.15;;
15071;SDS011;7635;56.696;13.002;2023-08-21T14:44:59;2.58;;;1.65;;
15071;SDS011;7635;56.696;13.002;2023-08-21T14:47:27;6.63;;;1.90;;
15071;SDS011;7635;56.696;13.002;2023-08-21T14:49:53;3.15;;;1.70;;
15071;SDS011;7635;56.696;13.002;2023-08-21T14:52:20;4.13;;;2.03;;